Chicago O'Hare International Airport
KORD : rendu visible

Aérodrome :











RETROUVEZ-NOUS SUR...

 
LOGIN :

S'inscrire | Disclaimer

   EN    FR    IT 

 









Légende :    VFR   VFR Marginal   IFR   IFR Intensif   IFR Très Intensif
Visi : 
Plafond : 
>= 8 km
>= 3000ft
5 à 8 km
1000 à 3000 ft
1500m à 5 km
500 à 1000 ft
800 à 1500m
200 à 500 ft
< 800m
< 200 ft
Symboles :   Orages  Brouillard  Fortes neiges  Fortes précipitations  Vent > 20 kt






- Altitude de l'aérodrome : 672 ft
- Code IATA : ORD


KORD - Chicago O'Hare International

DERNIER METAR :
  • 171551Z 12015G21KT 10SM FEW018 BKN210 OVC250 M04/M08 A3069 RMK AO2 SLP405 T10391083

METARs EXPIRÉS :
  • 171537Z 12014KT 10SM SCT018 OVC210 M04/M08 A3069 RMK AO2 T10391078
  • 171451Z 12004KT 10SM OVC019 M05/M09 A3072 RMK AO2 SLP417 T10501089 55012
  • 171351Z 00000KT 10SM OVC021 M08/M11 A3072 RMK AO2 SLP416 T10781106

TAF KORD
Valide du 17 à 15h jusqu'au 18 à 18h UTC


171454Z 1715/1818 14008KT P6SM BKN018 OVC200
FM171600 13012G17KT P6SM FEW020 OVC080
TEMPO 1722/1723 1 1/2SM -SN BKN025 OVC050
FM172300 13015G23KT 1 1/2SM -SN BR OVC009
TEMPO 1723/1802 1/2SM -SN FG VV007
FM180500 13015G23KT 2SM -SNPL BR OVC009
FM180700 15015G25KT 3SM -FZRAPLSN BR OVC007
FM181000 16015G25KT 3SM -DZRA BR OVC006
FM181300 19015G25KT 3SM -RA BR OVC005
FM181600 25020G30KT P6SM OVC009



MET'MAP, la Météo Aéronautique d'un coup d'oeil ! - Copyright ORBIFLY Décembre 2007 - Disclaimer

ORBIFLY MET'MAP TEAM :

Programmation & Développement : Alexandra Zaïnal
Sur une idée originale de : Baudouin d'Aumeries
Assistance à la programmation : Marc-Olivier Méhu
Soutien technique & logistique : Manuel Goepfert

Contact : metmap@orbifly.com




SOURCES & CREDITS :

   NOAA       Earth
Advisory